Time;durP1;ratioP1;P1;durP2;ratioP2;P2;SDS_P1;SDS_P2;PMS_P1;PMS_P2;Temp;Humidity;BMP_temperature;BMP_pressure;BME280_temperature;BME280_humidity;BME280_pressure;Samples;Min_cycle;Max_cycle;Signal;HPM_P1;HPM_P2
2022/08/15 00:02:08;;;;;;;;;;;;;;;35.05;22.59;99474.34;4426164;32;20059;-67
2022/08/15 00:04:34;;;;;;;;;;;;;;;34.87;22.76;99473.25;4425168;32;19993;-66
2022/08/15 00:06:59;;;;;;;;;;;;;;;34.95;22.75;99470.84;4426823;32;19949;-66
2022/08/15 00:09:25;;;;;;;;;;;;;;;34.88;22.81;99466.78;4425859;32;19972;-65
2022/08/15 00:11:52;;;;;;;;;;;;;;;34.81;22.81;99467.78;4428873;32;19965;-66
2022/08/15 00:14:20;;;;;;;;;;;;;;;34.70;23.00;99467.81;4428790;32;20003;-65
2022/08/15 00:16:47;;;;;;;;;;;;;;;34.62;22.97;99459.31;4426568;32;20032;-67
2022/08/15 00:19:16;;;;;;;;;;;;;;;34.86;22.78;99466.69;4426263;32;20761;-66
2022/08/15 00:21:44;;;;;;;;;;;;;;;34.72;22.99;99462.13;4429296;32;20394;-65
2022/08/15 00:24:11;;;;;;;;;;;;;;;34.54;23.35;99467.56;4428023;32;19989;-68
2022/08/15 00:26:36;;;;;;;;;;;;;;;34.56;23.17;99467.72;4427002;32;20398;-66
2022/08/15 00:29:03;;;;;;;;;;;;;;;34.65;23.12;99469.72;4429664;32;19967;-66
2022/08/15 00:31:31;;;;;;;;;;;;;;;34.42;23.45;99460.25;4430580;32;19980;-66
2022/08/15 00:33:58;;;;;;;;;;;;;;;34.35;23.53;99467.81;4429629;32;20364;-65
2022/08/15 00:36:24;;;;;;;;;;;;;;;34.33;23.70;99468.47;4427650;32;20357;-67
2022/08/15 00:38:49;;;;;;;;;;;;;;;34.29;23.60;99458.69;4427294;32;19962;-69
2022/08/15 00:41:48;;;;;;;;;;;;;;;34.31;23.46;99467.59;4427860;32;20104;-68
2022/08/15 00:44:03;;;;;;;;;;;;;;;34.43;23.25;99465.44;4427642;32;19962;-65
2022/08/15 00:46:30;;;;;;;;;;;;;;;34.36;23.16;99464.31;4429881;32;19982;-69
2022/08/15 00:48:56;;;;;;;;;;;;;;;34.47;23.05;99462.03;4428472;32;19961;-68
2022/08/15 00:51:26;;;;;;;;;;;;;;;34.48;22.91;99457.69;4428949;32;19990;-69
2022/08/15 00:53:55;;;;;;;;;;;;;;;34.57;22.90;99450.94;4431016;32;20315;-67
2022/08/15 00:56:24;;;;;;;;;;;;;;;34.62;22.86;99450.56;4428121;32;20404;-69
2022/08/15 00:58:50;;;;;;;;;;;;;;;34.57;23.07;99445.09;4427652;32;20709;-67
2022/08/15 01:01:16;;;;;;;;;;;;;;;34.47;23.31;99445.25;4430777;32;19993;-66
2022/08/15 01:03:44;;;;;;;;;;;;;;;34.73;22.89;99441.00;4430064;32;20004;-66
2022/08/15 01:06:09;;;;;;;;;;;;;;;34.77;22.95;99444.16;4425945;32;19957;-69
2022/08/15 01:08:39;;;;;;;;;;;;;;;34.61;23.13;99445.34;4427297;32;20012;-66
2022/08/15 01:11:10;;;;;;;;;;;;;;;34.76;22.87;99438.97;4429640;32;19992;-67
2022/08/15 01:13:37;;;;;;;;;;;;;;;34.71;22.90;99435.03;4427859;32;19997;-68
2022/08/15 01:16:02;;;;;;;;;;;;;;;34.58;22.85;99440.78;4428758;32;19977;-68
2022/08/15 01:18:28;;;;;;;;;;;;;;;34.77;22.69;99429.56;4427114;32;19953;-66
2022/08/15 01:20:55;;;;;;;;;;;;;;;34.92;22.35;99429.03;4426853;32;19957;-66
2022/08/15 01:26:06;;;;;;;;;;;;;;;35.39;22.44;99429.59;3956506;32;15723571;-67
2022/08/15 01:28:35;;;;;;;;;;;;;;;35.39;22.44;99429.59;4435039;32;20241;-68
2022/08/15 01:31:03;;;;;;;;;;;;;;;34.83;22.94;99435.75;4434055;32;19995;-66
2022/08/15 01:33:31;;;;;;;;;;;;;;;34.94;22.74;99432.06;4435086;32;19957;-66
2022/08/15 01:35:58;;;;;;;;;;;;;;;34.99;22.59;99430.13;4430753;32;19997;-65
2022/08/15 01:41:11;;;;;;;;;;;;;;;35.26;22.11;99425.19;3956002;32;15723213;-68
2022/08/15 01:43:42;;;;;;;;;;;;;;;35.26;22.11;99425.19;4441625;32;19992;-66
2022/08/15 01:46:10;;;;;;;;;;;;;;;34.84;22.51;99413.13;4439328;32;19987;-67
2022/08/15 01:48:44;;;;;;;;;;;;;;;34.95;22.48;99416.06;4440756;32;20456;-65
2022/08/15 01:51:10;;;;;;;;;;;;;;;34.88;22.67;99416.34;4439812;32;20276;-65
2022/08/15 01:53:42;;;;;;;;;;;;;;;34.88;22.46;99416.34;4440348;32;20004;-66
2022/08/15 01:56:27;;;;;;;;;;;;;;;34.74;22.56;99418.38;4440298;32;19949;-65
2022/08/15 01:58:53;;;;;;;;;;;;;;;34.68;22.66;99415.09;4439055;32;19991;-67
2022/08/15 02:01:20;;;;;;;;;;;;;;;34.89;22.48;99412.78;4442151;32;19957;-68
2022/08/15 02:03:47;;;;;;;;;;;;;;;34.77;22.69;99422.94;4433762;32;19969;-69
2022/08/15 02:06:15;;;;;;;;;;;;;;;34.80;22.73;99412.88;4435281;32;19953;-68
2022/08/15 02:08:42;;;;;;;;;;;;;;;34.75;22.93;99405.31;4437850;32;19981;-69
2022/08/15 02:11:09;;;;;;;;;;;;;;;34.81;22.98;99399.81;4437967;32;19969;-69
2022/08/15 02:13:35;;;;;;;;;;;;;;;34.67;22.94;99402.66;4437065;32;19988;-69
2022/08/15 02:16:02;;;;;;;;;;;;;;;34.72;22.80;99404.41;4437782;32;20339;-69
2022/08/15 02:18:27;;;;;;;;;;;;;;;34.76;22.84;99398.81;4437286;32;19993;-68
2022/08/15 02:20:54;;;;;;;;;;;;;;;34.48;23.22;99394.16;4436083;32;21108;-67
2022/08/15 02:23:21;;;;;;;;;;;;;;;34.68;23.03;99391.72;4438467;32;20000;-68
2022/08/15 02:25:48;;;;;;;;;;;;;;;34.72;23.06;99386.88;4436248;32;19992;-68
2022/08/15 02:28:13;;;;;;;;;;;;;;;34.61;23.12;99378.91;4437987;32;20012;-69
2022/08/15 02:30:39;;;;;;;;;;;;;;;34.43;23.44;99389.50;4436668;32;20232;-69
2022/08/15 02:33:05;;;;;;;;;;;;;;;34.27;23.87;99391.41;4439323;32;19953;-69
2022/08/15 02:35:31;;;;;;;;;;;;;;;34.21;23.93;99391.03;4437093;32;20028;-69
2022/08/15 02:38:01;;;;;;;;;;;;;;;34.27;23.73;99382.66;4437760;32;19968;-69
2022/08/15 02:40:27;;;;;;;;;;;;;;;34.31;23.64;99379.97;4437351;32;19980;-69
2022/08/15 02:42:53;;;;;;;;;;;;;;;34.21;23.81;99379.34;4436825;32;20229;-69
2022/08/15 02:45:18;;;;;;;;;;;;;;;34.33;23.68;99372.06;4436992;32;19965;-69
2022/08/15 02:47:44;;;;;;;;;;;;;;;34.24;24.00;99381.75;4436213;32;19961;-69
2022/08/15 02:50:10;;;;;;;;;;;;;;;34.34;23.96;99367.00;4437305;32;20016;-69
2022/08/15 02:52:39;;;;;;;;;;;;;;;34.09;24.20;99370.59;4426697;32;20405;-69
2022/08/15 02:55:05;;;;;;;;;;;;;;;34.22;24.19;99375.03;4427727;32;19989;-69
2022/08/15 02:57:32;;;;;;;;;;;;;;;34.33;24.03;99375.00;4425864;32;19962;-69
2022/08/15 03:00:02;;;;;;;;;;;;;;;34.28;24.22;99367.41;4425883;32;19988;-69
2022/08/15 03:02:28;;;;;;;;;;;;;;;34.29;24.17;99373.97;4427325;32;19945;-68
2022/08/15 03:04:56;;;;;;;;;;;;;;;34.25;24.20;99364.97;4425144;32;20066;-69
2022/08/15 03:07:21;;;;;;;;;;;;;;;34.27;24.22;99368.03;4426299;32;20350;-69
2022/08/15 03:09:53;;;;;;;;;;;;;;;34.10;24.59;99368.44;4426175;32;20023;-69
2022/08/15 03:12:23;;;;;;;;;;;;;;;34.18;24.39;99374.78;4429900;32;20001;-69
2022/08/15 03:14:52;;;;;;;;;;;;;;;34.05;24.65;99370.34;4426085;32;20005;-68
2022/08/15 03:17:17;;;;;;;;;;;;;;;33.83;24.85;99356.47;4424258;32;19957;-69
2022/08/15 03:19:43;;;;;;;;;;;;;;;33.79;25.01;99362.06;4423108;32;20422;-69
2022/08/15 03:22:10;;;;;;;;;;;;;;;33.92;24.78;99359.31;4428730;32;20005;-68
2022/08/15 03:24:35;;;;;;;;;;;;;;;33.84;24.84;99358.75;4427679;32;20017;-69
2022/08/15 03:27:01;;;;;;;;;;;;;;;33.77;25.00;99356.09;4426282;32;19964;-68
2022/08/15 03:29:27;;;;;;;;;;;;;;;33.88;24.78;99349.53;4425998;32;19965;-68
2022/08/15 03:31:52;;;;;;;;;;;;;;;33.98;24.80;99358.91;4425707;32;19972;-69
2022/08/15 03:34:19;;;;;;;;;;;;;;;33.93;24.84;99354.25;4426749;32;19980;-67
2022/08/15 03:36:46;;;;;;;;;;;;;;;33.91;24.88;99346.13;4426223;32;19968;-68
2022/08/15 03:39:12;;;;;;;;;;;;;;;33.85;24.95;99339.88;4423759;32;20240;-69
2022/08/15 03:41:37;;;;;;;;;;;;;;;33.85;25.03;99339.88;4428953;32;19994;-69
2022/08/15 03:44:03;;;;;;;;;;;;;;;33.56;25.42;99338.72;4427417;32;19965;-68
2022/08/15 03:46:29;;;;;;;;;;;;;;;33.54;25.36;99338.59;4426461;32;19953;-67
2022/08/15 03:48:56;;;;;;;;;;;;;;;33.41;25.47;99337.03;4425070;32;20016;-68
2022/08/15 03:51:23;;;;;;;;;;;;;;;33.49;25.56;99328.06;4427380;32;19976;-68
2022/08/15 03:53:50;;;;;;;;;;;;;;;33.51;25.47;99331.88;4428730;32;19978;-68
2022/08/15 03:56:18;;;;;;;;;;;;;;;33.34;25.56;99335.12;4429586;32;20408;-68
2022/08/15 03:58:44;;;;;;;;;;;;;;;33.40;25.55;99334.75;4425591;32;19980;-68
2022/08/15 04:01:16;;;;;;;;;;;;;;;33.39;25.56;99328.19;4426729;32;20014;-69
2022/08/15 04:03:43;;;;;;;;;;;;;;;33.00;26.11;99326.31;4425858;32;19997;-68
2022/08/15 04:06:10;;;;;;;;;;;;;;;33.06;26.06;99326.69;4412238;32;19954;-69
2022/08/15 04:08:36;;;;;;;;;;;;;;;33.25;25.80;99320.66;4424172;32;19994;-67
2022/08/15 04:11:03;;;;;;;;;;;;;;;33.26;25.80;99304.69;4424878;32;20403;-68
2022/08/15 04:13:30;;;;;;;;;;;;;;;33.21;25.88;99309.50;4428264;32;20200;-68
2022/08/15 04:15:57;;;;;;;;;;;;;;;33.26;25.75;99304.69;4426020;32;19989;-68
2022/08/15 04:18:24;;;;;;;;;;;;;;;33.42;25.65;99305.72;4423893;32;19965;-68
2022/08/15 04:20:50;;;;;;;;;;;;;;;33.36;25.67;99308.22;4426238;32;19977;-68
2022/08/15 04:23:15;;;;;;;;;;;;;;;33.33;25.70;99309.50;4427992;32;20387;-69
2022/08/15 04:25:42;;;;;;;;;;;;;;;33.31;25.68;99301.38;4427891;32;19997;-68
2022/08/15 04:28:08;;;;;;;;;;;;;;;33.38;25.63;99294.56;4425056;32;20002;-68
2022/08/15 04:30:36;;;;;;;;;;;;;;;33.19;25.87;99300.59;4426141;32;20569;-68
2022/08/15 04:33:10;;;;;;;;;;;;;;;33.06;25.99;99300.44;4425442;32;19954;-68
2022/08/15 04:35:37;;;;;;;;;;;;;;;33.06;25.97;99295.38;4424481;32;19957;-69
2022/08/15 04:38:02;;;;;;;;;;;;;;;33.00;26.24;99303.00;4425250;32;20359;-68
2022/08/15 04:40:29;;;;;;;;;;;;;;;32.93;26.28;99298.13;4423461;32;20015;-68
2022/08/15 04:43:00;;;;;;;;;;;;;;;32.79;26.42;99297.94;4423654;32;19976;-68
2022/08/15 04:45:27;;;;;;;;;;;;;;;32.72;26.42;99298.94;4426525;32;19957;-68
2022/08/15 04:47:53;;;;;;;;;;;;;;;32.67;26.56;99294.22;4425146;32;20643;-68
2022/08/15 04:50:19;;;;;;;;;;;;;;;32.68;26.51;99302.34;4423590;32;19980;-69
2022/08/15 04:52:46;;;;;;;;;;;;;;;32.77;26.29;99303.66;4424726;32;19963;-68
2022/08/15 04:55:13;;;;;;;;;;;;;;;32.89;26.31;99297.88;4426386;32;20001;-69
2022/08/15 04:57:39;;;;;;;;;;;;;;;32.78;26.41;99299.34;4424427;32;20012;-68
2022/08/15 05:00:08;;;;;;;;;;;;;;;32.69;26.55;99285.63;4423625;32;20292;-67
2022/08/15 05:02:34;;;;;;;;;;;;;;;32.86;26.34;99296.22;4425666;32;20016;-68
2022/08/15 05:04:59;;;;;;;;;;;;;;;32.79;26.36;99295.03;4422895;32;20665;-68
2022/08/15 05:07:25;;;;;;;;;;;;;;;32.64;26.55;99298.38;4424395;32;20331;-68
2022/08/15 05:09:51;;;;;;;;;;;;;;;32.67;26.58;99297.91;4424670;32;19956;-68
2022/08/15 05:12:16;;;;;;;;;;;;;;;32.67;26.64;99292.06;4425109;32;20557;-68
2022/08/15 05:14:41;;;;;;;;;;;;;;;32.64;26.57;99289.66;4424409;32;19988;-68
2022/08/15 05:17:07;;;;;;;;;;;;;;;32.49;26.76;99293.78;4423583;32;19984;-68
2022/08/15 05:19:32;;;;;;;;;;;;;;;32.46;26.65;99295.03;4422264;32;20455;-68
2022/08/15 05:21:58;;;;;;;;;;;;;;;32.63;26.74;99299.78;4424150;32;19954;-68
2022/08/15 05:24:23;;;;;;;;;;;;;;;32.74;26.52;99289.56;4425233;32;20334;-69
2022/08/15 05:26:49;;;;;;;;;;;;;;;32.78;26.53;99293.50;4424248;32;19993;-69
2022/08/15 05:29:15;;;;;;;;;;;;;;;32.67;26.61;99291.31;4425045;32;20453;-69
2022/08/15 05:31:40;;;;;;;;;;;;;;;32.64;26.61;99293.34;4424215;32;20011;-68
2022/08/15 05:34:06;;;;;;;;;;;;;;;32.63;26.67;99291.81;4422935;32;19988;-68
2022/08/15 05:36:33;;;;;;;;;;;;;;;32.67;26.72;99292.06;4423738;32;20335;-68
2022/08/15 05:39:01;;;;;;;;;;;;;;;32.98;26.29;99291.19;4421088;32;20338;-68
2022/08/15 05:52:09;;;;;;;;;;;;;;;33.60;25.95;99301.06;3953262;32;15725596;-68
2022/08/15 05:57:16;;;;;;;;;;;;;;;34.08;25.34;99301.16;3976380;31;15726682;-68
2022/08/15 05:59:43;;;;;;;;;;;;;;;34.08;25.34;99301.16;4450559;32;20030;-68
2022/08/15 06:02:13;;;;;;;;;;;;;;;33.81;25.56;99295.09;4452820;32;20003;-68
2022/08/15 06:07:22;;;;;;;;;;;;;;;34.30;24.97;99303.25;3954293;32;15722591;-69
2022/08/15 06:09:51;;;;;;;;;;;;;;;34.31;24.92;99304.03;4436670;32;19971;-68
2022/08/15 06:12:21;;;;;;;;;;;;;;;34.47;24.74;99298.44;4435958;32;19949;-68
2022/08/15 06:14:50;;;;;;;;;;;;;;;34.38;24.84;99317.63;4438558;32;19964;-68
2022/08/15 06:19:52;;;;;;;;;;;;;;;34.61;24.50;99314.63;3959029;32;15724421;-68
2022/08/15 06:27:50;;;;;;;;;;;;;;;35.29;23.98;99320.75;3956278;31;15718624;-68
2022/08/15 06:30:18;;;;;;;;;;;;;;;35.29;23.98;99320.75;4432834;32;20040;-69
2022/08/15 06:33:06;;;;;;;;;;;;;;;35.09;24.11;99329.13;4430381;32;20021;-69
2022/08/15 06:41:09;;;;;;;;;;;;;;;35.31;23.94;99312.84;3939607;32;15723438;-67
2022/08/15 06:43:35;;;;;;;;;;;;;;;35.31;23.94;99312.84;4413406;32;19966;-66
2022/08/15 06:46:02;;;;;;;;;;;;;;;35.48;23.49;99309.47;4415627;32;20047;-68
2022/08/15 06:48:30;;;;;;;;;;;;;;;35.60;23.45;99312.28;4411376;32;19949;-68
2022/08/15 06:51:00;;;;;;;;;;;;;;;35.65;23.18;99316.97;4412226;32;20453;-68
2022/08/15 06:53:30;;;;;;;;;;;;;;;35.60;23.45;99318.91;4411271;32;20326;-68
2022/08/15 06:56:08;;;;;;;;;;;;;;;35.93;22.94;99319.28;4413166;32;20055;-68
2022/08/15 07:04:14;;;;;;;;;;;;;;;36.89;22.05;99317.72;3956780;32;15721629;-69
2022/08/15 07:06:46;;;;;;;;;;;;;;;36.89;22.05;99317.72;4431714;32;19964;-69
2022/08/15 07:09:23;;;;;;;;;;;;;;;36.68;22.15;99312.22;4434184;32;19956;-69
2022/08/15 07:11:52;;;;;;;;;;;;;;;36.77;21.98;99310.50;4434409;32;20043;-69
2022/08/15 07:14:27;;;;;;;;;;;;;;;36.79;21.97;99314.28;4432974;32;19995;-69
2022/08/15 07:17:03;;;;;;;;;;;;;;;36.83;21.99;99310.78;4435950;32;20351;-69
2022/08/15 07:19:29;;;;;;;;;;;;;;;37.01;21.86;99312.47;4429651;32;20019;-69
2022/08/15 07:21:54;;;;;;;;;;;;;;;36.40;22.54;99310.78;4431691;32;19981;-69
2022/08/15 07:27:07;;;;;;;;;;;;;;;37.36;21.80;99306.13;3959427;32;15722466;-69
2022/08/15 07:32:21;;;;;;;;;;;;;;;37.25;21.75;99307.03;3954296;32;15724324;-69
2022/08/15 07:35:06;;;;;;;;;;;;;;;37.25;21.75;99307.03;4425037;32;20026;-69
2022/08/15 07:37:33;;;;;;;;;;;;;;;36.92;21.96;99307.63;4432250;32;19954;-67
2022/08/15 07:40:03;;;;;;;;;;;;;;;36.53;22.35;99318.03;4430824;32;20000;-70
2022/08/15 07:42:36;;;;;;;;;;;;;;;36.70;22.26;99308.66;4430731;32;19946;-68
2022/08/15 07:45:02;;;;;;;;;;;;;;;36.48;22.84;99310.44;4431733;32;19976;-68
2022/08/15 07:47:31;;;;;;;;;;;;;;;36.59;22.77;99304.44;4435716;32;19996;-68
2022/08/15 07:49:59;;;;;;;;;;;;;;;36.56;22.92;99302.09;4433719;32;20446;-68
2022/08/15 07:52:24;;;;;;;;;;;;;;;36.76;22.64;99306.03;4430959;32;19954;-68
2022/08/15 07:54:51;;;;;;;;;;;;;;;36.80;22.61;99309.19;4431451;32;20000;-68
2022/08/15 07:57:34;;;;;;;;;;;;;;;36.94;22.44;99309.88;4431652;32;20000;-69
2022/08/15 08:05:36;;;;;;;;;;;;;;;37.99;21.97;99319.38;3952254;32;15727313;-67
2022/08/15 08:08:05;;;;;;;;;;;;;;;37.99;21.97;99319.38;4437227;32;19962;-67
2022/08/15 08:16:07;;;;;;;;;;;;;;;38.74;21.01;99312.44;3944687;32;15733575;-69
2022/08/15 08:18:41;;;;;;;;;;;;;;;38.74;21.01;99312.44;4422995;32;20088;-70
2022/08/15 08:21:11;;;;;;;;;;;;;;;38.77;20.86;99314.03;4421567;32;19984;-70
2022/08/15 08:23:40;;;;;;;;;;;;;;;39.09;20.56;99303.66;4420182;32;19997;-71
2022/08/15 08:26:17;;;;;;;;;;;;;;;39.22;20.33;99305.66;4422655;32;20291;-70
2022/08/15 08:31:23;;;;;;;;;;;;;;;39.61;19.70;99308.69;3954429;32;15721476;-68
2022/08/15 08:44:42;;;;;;;;;;;;;;;40.01;19.87;99330.13;3946337;32;15723666;-67
2022/08/15 08:52:52;;;;;;;;;;;;;;;41.00;19.10;99349.91;3962875;31;15717610;-68
2022/08/15 08:55:22;;;;;;;;;;;;;;;41.00;19.10;99349.91;4430849;32;19953;-68
2022/08/15 08:57:58;;;;;;;;;;;;;;;41.15;18.78;99354.13;4435917;32;20052;-68
2022/08/15 09:00:32;;;;;;;;;;;;;;;41.47;18.49;99354.41;4436949;32;19997;-68
2022/08/15 09:03:02;;;;;;;;;;;;;;;41.54;18.37;99347.28;4438436;32;19993;-68
2022/08/15 09:08:10;;;;;;;;;;;;;;;42.71;17.31;99364.84;3956571;32;15723673;-69
2022/08/15 09:10:36;;;;;;;;;;;;;;;42.71;17.31;99364.84;4438100;32;20070;-69
2022/08/15 09:13:34;;;;;;;;;;;;;;;42.52;17.45;99353.94;4439873;32;19968;-69
2022/08/15 09:15:50;;;;;;;;;;;;;;;42.80;17.33;99357.69;4436752;32;20036;-69
2022/08/15 09:18:32;;;;;;;;;;;;;;;42.99;16.98;99352.97;4432524;32;19988;-68
2022/08/15 09:20:58;;;;;;;;;;;;;;;42.59;17.44;99345.97;4436324;32;19988;-68
2022/08/15 09:23:25;;;;;;;;;;;;;;;42.89;17.33;99352.72;4436494;32;19975;-69
2022/08/15 09:26:10;;;;;;;;;;;;;;;42.55;17.72;99342.91;4428890;32;19975;-68
2022/08/15 09:28:38;;;;;;;;;;;;;;;42.43;17.95;99342.56;4437056;32;20009;-68
2022/08/15 09:33:53;;;;;;;;;;;;;;;42.96;17.96;99348.44;3954944;32;15725665;-69
2022/08/15 09:41:48;;;;;;;;;;;;;;;43.45;17.77;99357.09;3952925;32;15723531;-68
2022/08/15 09:44:34;;;;;;;;;;;;;;;43.45;17.77;99357.09;4429601;32;19993;-68
2022/08/15 09:49:55;;;;;;;;;;;;;;;44.97;16.00;99359.56;3950002;32;15733028;-69
2022/08/15 09:52:30;;;;;;;;;;;;;;;44.97;16.00;99359.56;4429488;32;19963;-69
2022/08/15 09:55:02;;;;;;;;;;;;;;;45.56;15.34;99358.31;4428443;32;20252;-69
2022/08/15 10:00:24;;;;;;;;;;;;;;;47.24;13.84;99356.66;3952052;32;15724600;-69
2022/08/15 10:02:51;;;;;;;;;;;;;;;47.24;13.84;99356.66;4426594;32;20264;-67
2022/08/15 10:05:36;;;;;;;;;;;;;;;46.94;13.87;99368.28;4425129;32;20013;-69
2022/08/15 10:08:05;;;;;;;;;;;;;;;47.40;13.51;99365.69;4430421;32;20477;-69
2022/08/15 10:15:44;;;;;;;;;;;;;;;49.01;12.40;99379.88;3954067;32;15724661;-67
2022/08/15 10:21:18;;;;;;;;;;;;;;;48.31;13.00;99378.94;3955320;32;15739572;-67
2022/08/15 10:23:46;;;;;;;;;;;;;;;48.89;12.47;99373.12;4433749;32;19992;-67
2022/08/15 10:26:20;;;;;;;;;;;;;;;49.13;12.35;99367.94;4432889;32;19964;-67
2022/08/15 10:29:05;;;;;;;;;;;;;;;48.76;12.70;99363.41;4436206;32;20023;-69
2022/08/15 10:31:53;;;;;;;;;;;;;;;48.55;12.75;99358.13;4432100;32;19985;-69
2022/08/15 10:34:35;;;;;;;;;;;;;;;47.45;13.54;99367.22;4433018;32;20285;-69
2022/08/15 10:37:15;;;;;;;;;;;;;;;47.46;13.53;99368.72;4434274;32;19960;-69
2022/08/15 10:39:52;;;;;;;;;;;;;;;47.33;13.62;99373.09;4434074;32;20012;-69
2022/08/15 10:42:37;;;;;;;;;;;;;;;47.53;13.40;99370.25;4419463;32;19996;-69
2022/08/15 10:48:03;;;;;;;;;;;;;;;47.92;13.33;99372.03;3959953;31;15721710;-69
2022/08/15 10:50:42;;;;;;;;;;;;;;;47.92;13.33;99372.03;4432008;32;20012;-69
2022/08/15 10:53:28;;;;;;;;;;;;;;;47.37;13.88;99382.81;4433569;32;19993;-69
2022/08/15 10:56:05;;;;;;;;;;;;;;;47.94;13.53;99375.03;4436618;32;19989;-69
2022/08/15 10:58:32;;;;;;;;;;;;;;;46.31;14.90;99376.50;4432917;32;19996;-69
2022/08/15 11:03:43;;;;;;;;;;;;;;;44.05;17.52;99367.38;3957717;32;15723593;-69
2022/08/15 11:06:13;;;;;;;;;;;;;;;44.05;17.52;99367.38;4441990;32;20628;-69
2022/08/15 11:08:46;;;;;;;;;;;;;;;43.45;17.89;99368.19;4440032;32;20437;-69
2022/08/15 11:11:12;;;;;;;;;;;;;;;43.15;18.08;99376.34;4438290;32;20001;-69
2022/08/15 11:13:40;;;;;;;;;;;;;;;42.42;18.73;99377.31;4438986;32;19953;-69
2022/08/15 11:16:10;;;;;;;;;;;;;;;42.42;18.75;99383.22;4440723;32;19971;-69
2022/08/15 11:18:42;;;;;;;;;;;;;;;42.69;18.50;99373.66;4439789;32;20941;-69
2022/08/15 11:21:28;;;;;;;;;;;;;;;43.16;18.01;99374.88;4439717;32;20013;-69
2022/08/15 11:23:55;;;;;;;;;;;;;;;42.46;18.43;99386.31;4439839;32;19964;-69
2022/08/15 11:26:23;;;;;;;;;;;;;;;42.31;18.79;99381.44;4441068;32;19989;-69
2022/08/15 11:28:54;;;;;;;;;;;;;;;42.16;19.05;99381.69;4438159;32;19980;-69
2022/08/15 11:31:19;;;;;;;;;;;;;;;42.81;18.44;99391.72;4439394;32;20599;-69
2022/08/15 11:33:46;;;;;;;;;;;;;;;42.72;18.24;99389.25;4440205;32;20003;-69
2022/08/15 11:36:16;;;;;;;;;;;;;;;43.22;17.64;99396.53;4437583;32;19967;-69
2022/08/15 11:38:44;;;;;;;;;;;;;;;42.69;18.18;99390.63;4440467;32;20011;-69
2022/08/15 11:41:17;;;;;;;;;;;;;;;41.77;18.59;99402.66;4438459;32;19979;-69
2022/08/15 11:43:43;;;;;;;;;;;;;;;42.04;18.92;99399.06;4438918;32;19972;-69
2022/08/15 11:46:08;;;;;;;;;;;;;;;41.78;19.36;99396.06;4439263;32;19992;-69
2022/08/15 11:48:36;;;;;;;;;;;;;;;41.49;19.71;99396.59;4436476;32;19964;-69
2022/08/15 11:51:21;;;;;;;;;;;;;;;40.60;20.46;99395.69;4437495;32;20004;-69
2022/08/15 11:56:55;;;;;;;;;;;;;;;41.85;18.97;99408.81;3955774;32;15721608;-69
2022/08/15 11:59:26;;;;;;;;;;;;;;;41.85;18.97;99408.81;4432535;32;20311;-69
2022/08/15 12:04:38;;;;;;;;;;;;;;;42.07;18.91;99424.28;3955302;32;15723331;-69
2022/08/15 12:07:06;;;;;;;;;;;;;;;42.07;18.91;99424.28;4431951;32;20250;-69
2022/08/15 12:09:32;;;;;;;;;;;;;;;41.64;18.89;99418.47;4431645;32;20426;-67
2022/08/15 12:11:58;;;;;;;;;;;;;;;41.47;19.01;99414.22;4435078;32;19985;-67
2022/08/15 12:14:25;;;;;;;;;;;;;;;41.39;19.02;99416.91;4433327;32;19983;-67
2022/08/15 12:16:53;;;;;;;;;;;;;;;41.02;19.59;99423.78;4432314;32;20037;-67
2022/08/15 12:19:24;;;;;;;;;;;;;;;40.30;20.47;99421.13;4433805;32;20329;-68
2022/08/15 12:21:51;;;;;;;;;;;;;;;41.01;19.93;99424.47;4433625;32;20532;-68
2022/08/15 12:24:23;;;;;;;;;;;;;;;40.91;20.19;99424.09;4433608;32;19957;-68
2022/08/15 12:26:49;;;;;;;;;;;;;;;40.39;20.83;99437.69;4432370;32;20004;-68
2022/08/15 12:29:16;;;;;;;;;;;;;;;40.28;20.89;99435.81;4432695;32;20154;-68
2022/08/15 12:31:42;;;;;;;;;;;;;;;39.91;21.33;99438.00;4433893;32;19978;-68
2022/08/15 12:34:16;;;;;;;;;;;;;;;39.90;21.31;99440.16;4432929;32;19978;-68
2022/08/15 12:36:43;;;;;;;;;;;;;;;39.83;21.40;99444.31;4433407;32;20084;-68
2022/08/15 12:39:10;;;;;;;;;;;;;;;40.01;20.61;99445.03;4432195;32;20148;-68
2022/08/15 12:41:35;;;;;;;;;;;;;;;39.83;20.73;99437.66;4431731;32;19998;-68
2022/08/15 12:44:03;;;;;;;;;;;;;;;39.89;20.55;99432.00;4433093;32;20334;-68
2022/08/15 12:46:28;;;;;;;;;;;;;;;40.08;20.51;99446.78;4434372;32;20012;-68
2022/08/15 12:48:54;;;;;;;;;;;;;;;40.07;21.22;99444.50;4433083;32;20315;-68
2022/08/15 12:51:19;;;;;;;;;;;;;;;39.83;21.50;99453.16;4435788;32;19967;-68
2022/08/15 12:53:45;;;;;;;;;;;;;;;39.56;22.02;99451.31;4431214;32;19992;-68
2022/08/15 12:56:11;;;;;;;;;;;;;;;39.80;21.67;99448.59;4434583;32;19946;-68
2022/08/15 12:58:39;;;;;;;;;;;;;;;39.73;21.69;99446.84;4431674;32;20225;-68
2022/08/15 13:01:07;;;;;;;;;;;;;;;39.18;22.29;99446.75;4435881;32;19988;-68
2022/08/15 13:03:33;;;;;;;;;;;;;;;39.29;22.13;99447.91;4429855;32;19996;-68
2022/08/15 13:06:03;;;;;;;;;;;;;;;38.90;22.57;99463.12;4434562;32;20330;-68
2022/08/15 13:08:28;;;;;;;;;;;;;;;39.50;21.87;99453.25;4429348;32;20634;-68
2022/08/15 13:10:54;;;;;;;;;;;;;;;39.35;22.02;99457.00;4434327;32;19965;-68
2022/08/15 13:13:20;;;;;;;;;;;;;;;39.40;21.92;99456.53;4433962;32;19996;-68
2022/08/15 13:15:46;;;;;;;;;;;;;;;38.95;22.36;99470.72;4425160;32;20448;-68
2022/08/15 13:18:23;;;;;;;;;;;;;;;39.27;21.89;99466.25;4419686;32;20369;-68
2022/08/15 13:23:38;;;;;;;;;;;;;;;39.46;21.59;99471.53;4421430;32;19964;-68
2022/08/15 13:26:08;;;;;;;;;;;;;;;39.43;21.66;99469.91;4423515;32;20417;-68
2022/08/15 13:28:35;;;;;;;;;;;;;;;39.53;21.54;99475.47;4419629;32;20401;-68
2022/08/15 13:31:01;;;;;;;;;;;;;;;39.57;21.49;99467.53;4420648;32;20011;-68
2022/08/15 13:33:26;;;;;;;;;;;;;;;39.51;21.43;99461.41;4419621;32;20453;-68
2022/08/15 13:35:52;;;;;;;;;;;;;;;39.29;21.80;99459.69;4419592;32;20355;-68
2022/08/15 13:38:18;;;;;;;;;;;;;;;39.68;21.33;99468.72;4419785;32;19958;-68
2022/08/15 13:40:49;;;;;;;;;;;;;;;39.29;21.58;99469.28;4422837;32;19945;-68
2022/08/15 13:43:14;;;;;;;;;;;;;;;39.16;21.77;99470.19;4418407;32;20000;-68
2022/08/15 13:45:42;;;;;;;;;;;;;;;39.39;21.55;99474.84;4422457;32;19961;-67
2022/08/15 13:48:07;;;;;;;;;;;;;;;39.03;21.96;99482.87;4419154;32;20938;-68
2022/08/15 13:50:35;;;;;;;;;;;;;;;39.55;21.39;99484.38;4418964;32;19995;-68
2022/08/15 13:53:00;;;;;;;;;;;;;;;39.44;21.42;99480.25;4420887;32;19976;-68
2022/08/15 13:55:25;;;;;;;;;;;;;;;38.91;21.96;99482.31;4421714;32;19985;-68
2022/08/15 13:57:51;;;;;;;;;;;;;;;39.17;21.69;99476.84;4422805;32;20019;-68
2022/08/15 14:00:17;;;;;;;;;;;;;;;39.14;21.81;99472.31;4421455;32;20004;-67
2022/08/15 14:02:44;;;;;;;;;;;;;;;39.27;21.63;99472.12;4419883;32;19980;-67
2022/08/15 14:05:16;;;;;;;;;;;;;;;39.34;21.70;99476.88;4421931;32;20235;-67
2022/08/15 14:07:42;;;;;;;;;;;;;;;39.59;21.71;99473.53;4419662;32;20247;-67
2022/08/15 14:10:08;;;;;;;;;;;;;;;39.46;21.79;99482.53;4421205;32;19968;-68
2022/08/15 14:12:35;;;;;;;;;;;;;;;39.62;21.52;99469.22;4421633;32;19994;-67
2022/08/15 14:15:02;;;;;;;;;;;;;;;39.53;21.47;99475.47;4419589;32;19993;-68
2022/08/15 14:17:28;;;;;;;;;;;;;;;39.83;20.95;99484.81;4421577;32;19977;-68
2022/08/15 14:19:53;;;;;;;;;;;;;;;40.19;21.25;99478.16;4420732;32;20053;-67
2022/08/15 14:22:19;;;;;;;;;;;;;;;39.54;22.84;99477.72;4423284;32;20009;-67
2022/08/15 14:24:45;;;;;;;;;;;;;;;39.30;23.79;99473.00;4428991;32;19953;-67
2022/08/15 14:27:10;;;;;;;;;;;;;;;39.16;23.72;99472.38;4422729;32;20272;-67
2022/08/15 14:29:39;;;;;;;;;;;;;;;38.84;23.72;99468.00;4423514;32;20029;-67
2022/08/15 14:32:05;;;;;;;;;;;;;;;38.73;23.52;99472.69;4424560;32;20002;-67
2022/08/15 14:34:31;;;;;;;;;;;;;;;38.76;24.03;99461.75;4422109;32;20335;-68
2022/08/15 14:36:56;;;;;;;;;;;;;;;38.20;23.86;99470.91;4423098;32;19949;-67
2022/08/15 14:39:22;;;;;;;;;;;;;;;38.71;22.56;99469.66;4418416;32;19974;-68
2022/08/15 14:41:48;;;;;;;;;;;;;;;38.97;22.25;99467.91;4421028;32;20036;-68
2022/08/15 14:44:15;;;;;;;;;;;;;;;39.60;21.86;99469.16;4420422;32;19965;-68
2022/08/15 14:46:42;;;;;;;;;;;;;;;39.92;20.90;99463.06;4420376;32;19994;-68